createdAt,value
2018-08-13T00:00:35.489Z,99.90
2018-08-13T00:03:04.849Z,99.90
2018-08-13T00:05:33.972Z,99.90
2018-08-13T00:08:03.201Z,99.90
2018-08-13T00:10:33.573Z,99.90
2018-08-13T00:15:31.985Z,99.90
2018-08-13T00:18:01.401Z,99.90
2018-08-13T00:20:36.229Z,99.90
2018-08-13T00:23:05.717Z,99.90
2018-08-13T00:25:35.353Z,99.90
2018-08-13T00:28:05.789Z,99.90
2018-08-13T00:30:43.088Z,99.90
2018-08-13T00:33:12.765Z,99.90
2018-08-13T00:35:42.195Z,99.90
2018-08-13T00:38:15.357Z,99.90
2018-08-13T00:40:46.822Z,99.90
2018-08-13T00:43:16.161Z,99.90
2018-08-13T00:45:45.493Z,99.90
2018-08-13T00:48:14.833Z,99.90
2018-08-13T00:50:49.334Z,99.90
2018-08-13T00:53:18.669Z,99.90
2018-08-13T00:55:48.090Z,99.90
2018-08-13T00:58:17.565Z,99.90
2018-08-13T01:00:48.068Z,99.90
2018-08-13T01:03:17.434Z,99.90
2018-08-13T01:05:46.901Z,99.90
2018-08-13T01:08:16.284Z,99.90
2018-08-13T01:10:45.739Z,99.90
2018-08-13T01:13:15.145Z,99.90
2018-08-13T01:15:44.490Z,99.90
2018-08-13T01:18:13.871Z,99.90
2018-08-13T01:20:44.321Z,99.90
2018-08-13T01:23:13.737Z,99.90
2018-08-13T01:25:43.204Z,99.90
2018-08-13T01:28:12.522Z,99.90
2018-08-13T01:30:43.005Z,99.90
2018-08-13T01:33:12.382Z,99.90
2018-08-13T01:35:41.729Z,99.90
2018-08-13T01:38:11.144Z,99.90
2018-08-13T01:40:42.549Z,99.90
2018-08-13T01:43:11.917Z,99.90
2018-08-13T01:45:41.302Z,99.90
2018-08-13T01:48:10.701Z,99.90
2018-08-13T01:50:47.697Z,99.90
2018-08-13T01:53:18.001Z,99.90
2018-08-13T01:55:47.356Z,99.90
2018-08-13T01:58:16.733Z,99.90
2018-08-13T02:00:46.233Z,99.90
2018-08-13T02:03:15.425Z,99.90
2018-08-13T02:05:44.593Z,99.90
2018-08-13T02:08:13.993Z,99.90
2018-08-13T02:11:15.385Z,99.90
2018-08-13T02:13:44.770Z,99.90
2018-08-13T02:16:14.185Z,99.90
2018-08-13T02:18:43.589Z,99.90
2018-08-13T02:21:16.689Z,99.90
2018-08-13T02:23:46.082Z,99.90
2018-08-13T02:26:15.729Z,99.90
2018-08-13T02:28:45.141Z,99.90
2018-08-13T02:31:22.314Z,99.90
2018-08-13T02:33:51.753Z,99.90
2018-08-13T02:36:21.070Z,99.90
2018-08-13T02:38:50.402Z,99.90
2018-08-13T02:41:24.537Z,99.90
2018-08-13T02:43:53.922Z,99.90
2018-08-13T02:46:23.338Z,99.90
2018-08-13T02:48:52.701Z,99.90
2018-08-13T02:51:30.290Z,99.90
2018-08-13T02:53:59.875Z,99.90
2018-08-13T02:56:29.363Z,99.90
2018-08-13T02:58:58.898Z,99.90
2018-08-13T03:01:28.841Z,99.90
2018-08-13T03:03:58.180Z,99.90
2018-08-13T03:06:27.547Z,99.90
2018-08-13T03:08:56.967Z,99.90
2018-08-13T03:11:27.389Z,99.90
2018-08-13T03:13:56.861Z,99.90
2018-08-13T03:16:26.124Z,99.90
2018-08-13T03:18:55.608Z,99.90
2018-08-13T03:21:24.993Z,99.90
2018-08-13T03:23:54.438Z,99.90
2018-08-13T03:26:23.821Z,99.90
2018-08-13T03:28:53.262Z,99.90
2018-08-13T03:31:30.722Z,99.90
2018-08-13T03:34:00.065Z,99.90
2018-08-13T03:36:29.417Z,99.90
2018-08-13T03:38:58.829Z,99.90
2018-08-13T03:41:29.238Z,99.90
2018-08-13T03:43:58.601Z,99.90
2018-08-13T03:46:28.022Z,99.90
2018-08-13T03:48:57.442Z,99.90
2018-08-13T03:51:27.818Z,99.90
2018-08-13T03:53:57.112Z,99.90
2018-08-13T03:56:26.485Z,99.90
2018-08-13T03:58:55.873Z,99.90
2018-08-13T04:01:51.031Z,99.90
2018-08-13T04:04:20.421Z,99.90
2018-08-13T04:06:49.743Z,99.90
2018-08-13T04:09:19.306Z,99.90
2018-08-13T04:11:49.749Z,99.90
2018-08-13T04:14:19.160Z,99.90
2018-08-13T04:16:55.805Z,99.90
2018-08-13T04:19:25.293Z,99.90
2018-08-13T04:21:59.525Z,99.90
2018-08-13T04:24:28.981Z,99.90
2018-08-13T04:26:58.885Z,99.90
2018-08-13T04:29:28.257Z,99.90
2018-08-13T04:31:57.749Z,99.90
2018-08-13T04:34:27.037Z,99.90
2018-08-13T04:36:56.478Z,99.90
2018-08-13T04:39:25.826Z,99.90
2018-08-13T04:41:57.317Z,99.90
2018-08-13T04:44:26.749Z,99.90
2018-08-13T04:46:56.190Z,99.90
2018-08-13T04:49:25.592Z,99.90
2018-08-13T04:51:57.186Z,99.90
2018-08-13T04:54:26.641Z,99.90
2018-08-13T04:56:56.006Z,99.90
2018-08-13T04:59:25.441Z,99.90
2018-08-13T05:01:54.856Z,99.90
2018-08-13T05:04:24.219Z,99.90
2018-08-13T05:06:53.620Z,99.90
2018-08-13T05:09:23.014Z,99.90
2018-08-13T05:12:04.306Z,99.90
2018-08-13T05:14:33.747Z,99.90
2018-08-13T05:17:03.034Z,99.90
2018-08-13T05:19:32.586Z,99.90
2018-08-13T05:22:13.061Z,99.90
2018-08-13T05:24:42.449Z,99.90
2018-08-13T05:27:11.903Z,99.90
2018-08-13T05:29:41.258Z,99.90
2018-08-13T05:32:15.669Z,99.90
2018-08-13T05:34:45.061Z,99.90
2018-08-13T05:37:14.557Z,99.90
2018-08-13T05:39:43.977Z,99.90
2018-08-13T05:42:15.393Z,99.90
2018-08-13T05:44:44.850Z,99.90
2018-08-13T05:47:14.416Z,99.90
2018-08-13T05:49:44.761Z,99.90
2018-08-13T05:52:14.230Z,99.90
2018-08-13T05:54:43.605Z,99.90
2018-08-13T05:57:13.089Z,99.90
2018-08-13T05:59:42.523Z,99.90
2018-08-13T06:02:16.614Z,99.90
2018-08-13T06:04:46.077Z,99.90
2018-08-13T06:07:16.043Z,99.90
2018-08-13T06:09:45.461Z,99.90
2018-08-13T06:12:14.974Z,99.90
2018-08-13T06:14:44.344Z,99.90
2018-08-13T06:17:13.654Z,99.90
2018-08-13T06:19:43.100Z,99.90
2018-08-13T06:22:12.489Z,99.90
2018-08-13T06:24:41.825Z,99.90
2018-08-13T06:27:11.275Z,99.90
2018-08-13T06:29:40.677Z,99.90
2018-08-13T06:32:12.194Z,99.90
2018-08-13T06:34:41.595Z,99.90
2018-08-13T06:37:10.990Z,99.90
2018-08-13T06:39:40.441Z,99.90
2018-08-13T06:42:13.094Z,99.90
2018-08-13T06:44:42.425Z,99.90
2018-08-13T06:47:11.918Z,99.90
2018-08-13T06:49:41.236Z,99.90
2018-08-13T06:52:10.966Z,99.90
2018-08-13T06:54:40.270Z,99.90
2018-08-13T06:57:09.374Z,99.90
2018-08-13T06:59:38.454Z,99.90
2018-08-13T07:02:14.652Z,99.90
2018-08-13T07:07:13.622Z,99.90
2018-08-13T07:09:42.982Z,99.90
2018-08-13T07:14:42.421Z,99.90
2018-08-13T07:17:11.604Z,99.90
2018-08-13T07:19:40.721Z,99.90
2018-08-13T07:22:10.955Z,99.90
2018-08-13T07:24:40.062Z,99.90
2018-08-13T07:27:09.189Z,99.90
2018-08-13T07:29:38.309Z,99.90
2018-08-13T07:34:45.167Z,99.90
2018-08-13T07:37:14.370Z,99.90
2018-08-13T07:43:12.361Z,99.90
2018-08-13T07:45:41.807Z,99.20
2018-08-13T07:48:10.861Z,99.90
2018-08-13T07:50:41.087Z,99.90
2018-08-13T07:53:10.189Z,95.80
2018-08-13T07:55:39.288Z,96.40
2018-08-13T08:00:50.513Z,93.40
2018-08-13T08:03:19.674Z,93.90
2018-08-13T08:05:48.851Z,93.60
2018-08-13T08:08:17.977Z,93.40
2018-08-13T08:10:47.176Z,93.60
2018-08-13T08:13:16.325Z,92.90
2018-08-13T08:15:45.454Z,93.80
2018-08-13T08:18:14.560Z,92.40
2018-08-13T08:20:44.785Z,91.50
2018-08-13T08:23:13.912Z,91.00
2018-08-13T08:25:43.013Z,91.30
2018-08-13T08:28:12.310Z,89.70
2018-08-13T08:33:23.664Z,83.80
2018-08-13T08:35:53.061Z,85.20
2018-08-13T08:38:22.448Z,85.40
2018-08-13T08:40:51.965Z,87.40
2018-08-13T08:43:21.341Z,85.10
2018-08-13T08:45:50.790Z,86.30
2018-08-13T08:48:20.197Z,85.80
2018-08-13T08:51:04.758Z,84.70
2018-08-13T08:53:34.228Z,85.00
2018-08-13T08:56:03.599Z,82.20
2018-08-13T08:58:33.045Z,79.40
2018-08-13T09:01:03.633Z,80.10
2018-08-13T09:03:33.078Z,81.20
2018-08-13T09:06:02.519Z,80.20
2018-08-13T09:08:31.865Z,80.00
2018-08-13T09:11:09.605Z,78.70
2018-08-13T09:13:38.969Z,77.00
2018-08-13T09:16:08.385Z,75.50
2018-08-13T09:18:55.174Z,75.30
2018-08-13T09:21:35.368Z,74.10
2018-08-13T09:24:21.558Z,73.80
2018-08-13T09:27:07.721Z,74.20
2018-08-13T09:29:53.870Z,74.00
2018-08-13T09:32:43.791Z,73.30
2018-08-13T09:35:28.305Z,72.80
2018-08-13T09:37:57.901Z,71.20
2018-08-13T09:40:33.552Z,71.70
2018-08-13T09:43:02.685Z,70.70
2018-08-13T09:45:31.812Z,71.50
2018-08-13T09:48:00.902Z,72.00
2018-08-13T09:50:42.748Z,71.70
2018-08-13T09:55:40.723Z,72.10
2018-08-13T09:58:09.893Z,72.20
2018-08-13T10:03:24.077Z,71.80
2018-08-13T10:05:53.181Z,72.10
2018-08-13T10:10:55.415Z,71.20
2018-08-13T10:13:24.782Z,72.10
2018-08-13T10:15:54.151Z,71.30
2018-08-13T10:18:23.477Z,73.20
2018-08-13T10:21:01.626Z,74.80
2018-08-13T10:23:31.012Z,75.30
2018-08-13T10:26:00.462Z,84.90
2018-08-13T10:28:29.880Z,77.90
2018-08-13T10:30:59.313Z,79.70
2018-08-13T10:33:28.706Z,80.30
2018-08-13T10:35:58.009Z,82.80
2018-08-13T10:38:27.461Z,83.70
2018-08-13T10:40:58.837Z,84.50
2018-08-13T10:43:28.347Z,84.60
2018-08-13T10:45:57.690Z,84.60
2018-08-13T10:48:27.133Z,85.20
2018-08-13T10:51:18.069Z,84.60
2018-08-13T10:53:47.536Z,83.50
2018-08-13T10:56:17.016Z,84.50
2018-08-13T10:58:46.516Z,84.50
2018-08-13T11:01:20.309Z,85.60
2018-08-13T11:03:49.740Z,87.70
2018-08-13T11:06:19.816Z,87.80
2018-08-13T11:08:49.205Z,88.70
2018-08-13T11:11:20.274Z,90.30
2018-08-13T11:13:50.241Z,92.00
2018-08-13T11:16:19.741Z,92.00
2018-08-13T11:18:49.089Z,92.20
2018-08-13T11:21:26.085Z,95.20
2018-08-13T11:23:55.453Z,96.70
2018-08-13T11:26:24.845Z,99.90
2018-08-13T11:28:54.306Z,99.90
2018-08-13T11:31:35.193Z,99.90
2018-08-13T11:34:04.565Z,99.90
2018-08-13T11:36:33.980Z,99.90
2018-08-13T11:39:03.469Z,99.90
2018-08-13T11:41:33.914Z,99.90
2018-08-13T11:44:03.426Z,99.90
2018-08-13T11:46:32.889Z,99.90
2018-08-13T11:49:02.521Z,99.90
2018-08-13T11:51:36.060Z,99.90
2018-08-13T11:54:05.242Z,99.90
2018-08-13T11:56:34.417Z,99.90
2018-08-13T11:59:03.528Z,99.90
2018-08-13T12:01:32.840Z,99.90
2018-08-13T12:04:02.334Z,99.90
2018-08-13T12:06:31.711Z,99.90
2018-08-13T12:09:01.110Z,99.90
2018-08-13T12:11:36.177Z,99.90
2018-08-13T12:14:05.692Z,99.90
2018-08-13T12:16:35.181Z,99.90
2018-08-13T12:19:04.497Z,99.90
2018-08-13T12:21:38.668Z,99.90
2018-08-13T12:24:07.940Z,99.90
2018-08-13T12:26:37.064Z,99.90
2018-08-13T12:29:06.597Z,99.90
2018-08-13T12:31:35.794Z,99.90
2018-08-13T12:34:04.881Z,99.90
2018-08-13T12:36:33.981Z,99.90
2018-08-13T12:39:03.089Z,99.90
2018-08-13T12:41:39.545Z,99.90
2018-08-13T12:44:08.709Z,99.90
2018-08-13T12:46:38.017Z,99.90
2018-08-13T12:49:07.465Z,99.90
2018-08-13T12:51:38.889Z,99.90
2018-08-13T12:54:08.209Z,99.90
2018-08-13T12:56:39.693Z,99.90
2018-08-13T12:59:09.225Z,99.90
2018-08-13T13:01:38.682Z,99.90
2018-08-13T13:04:08.253Z,99.90
2018-08-13T13:06:37.610Z,99.90
2018-08-13T13:09:10.346Z,99.90
2018-08-13T13:11:40.737Z,99.90
2018-08-13T13:14:09.963Z,99.90
2018-08-13T13:16:39.125Z,99.90
2018-08-13T13:19:08.602Z,99.90
2018-08-13T13:21:43.657Z,99.90
2018-08-13T13:24:12.993Z,99.90
2018-08-13T13:26:42.397Z,99.90
2018-08-13T13:29:11.798Z,99.90
2018-08-13T13:31:45.185Z,99.90
2018-08-13T13:34:14.554Z,99.90
2018-08-13T13:36:43.947Z,99.90
2018-08-13T13:39:13.452Z,99.90
2018-08-13T13:41:43.822Z,99.90
2018-08-13T13:44:13.149Z,99.90
2018-08-13T13:46:42.553Z,99.90
2018-08-13T13:49:11.946Z,99.90
2018-08-13T13:51:41.443Z,99.90
2018-08-13T13:54:10.932Z,99.90
2018-08-13T13:56:40.369Z,99.90
2018-08-13T13:59:09.667Z,99.90
2018-08-13T14:01:52.812Z,99.90
2018-08-13T14:04:22.188Z,99.90
2018-08-13T14:06:51.690Z,99.90
2018-08-13T14:09:21.851Z,99.90
2018-08-13T14:14:21.528Z,99.90
2018-08-13T14:16:50.663Z,99.90
2018-08-13T14:19:19.829Z,99.90
2018-08-13T14:21:50.245Z,99.90
2018-08-13T14:24:19.724Z,99.90
2018-08-13T14:26:49.038Z,99.90
2018-08-13T14:29:18.580Z,99.90
2018-08-13T14:31:50.003Z,99.90
2018-08-13T14:34:19.770Z,99.90
2018-08-13T14:36:49.157Z,99.90
2018-08-13T14:39:19.179Z,99.90
2018-08-13T14:41:48.587Z,99.90
2018-08-13T14:44:18.050Z,99.90
2018-08-13T14:46:47.441Z,99.90
2018-08-13T14:49:16.951Z,99.90
2018-08-13T14:51:48.357Z,99.90
2018-08-13T14:54:17.785Z,99.90
2018-08-13T14:56:47.300Z,99.90
2018-08-13T14:59:16.813Z,99.90
2018-08-13T15:01:46.341Z,99.90
2018-08-13T15:04:15.777Z,99.90
2018-08-13T15:06:45.217Z,99.90
2018-08-13T15:09:14.956Z,99.90
2018-08-13T15:11:45.421Z,99.90
2018-08-13T15:14:15.042Z,99.90
2018-08-13T15:16:44.437Z,99.90
2018-08-13T15:19:14.011Z,99.90
2018-08-13T15:21:44.340Z,99.90
2018-08-13T15:24:13.705Z,99.90
2018-08-13T15:26:43.203Z,99.90
2018-08-13T15:29:12.593Z,99.90
2018-08-13T15:31:41.974Z,99.90
2018-08-13T15:34:11.329Z,99.90
2018-08-13T15:36:40.665Z,99.90
2018-08-13T15:39:11.593Z,99.90
2018-08-13T15:41:41.085Z,99.90
2018-08-13T15:44:10.417Z,99.90
2018-08-13T15:46:39.781Z,99.90
2018-08-13T15:49:09.170Z,99.90
2018-08-13T15:51:38.538Z,99.90
2018-08-13T15:54:07.969Z,99.90
2018-08-13T15:56:37.317Z,99.90
2018-08-13T15:59:06.879Z,99.90
2018-08-13T16:01:36.282Z,99.90
2018-08-13T16:04:05.785Z,99.90
2018-08-13T16:06:35.218Z,99.90
2018-08-13T16:09:05.989Z,99.90
2018-08-13T16:11:35.144Z,99.90
2018-08-13T16:14:04.301Z,99.90
2018-08-13T16:16:33.474Z,99.90
2018-08-13T16:19:02.569Z,99.90
2018-08-13T16:21:31.688Z,99.90
2018-08-13T16:24:00.905Z,99.90
2018-08-13T16:26:29.966Z,99.90
2018-08-13T16:28:59.201Z,99.90
2018-08-13T16:31:28.677Z,99.90
2018-08-13T16:33:58.124Z,99.90
2018-08-13T16:36:27.526Z,99.90
2018-08-13T16:38:56.981Z,99.90
2018-08-13T16:41:26.461Z,99.90
2018-08-13T16:43:55.817Z,99.90
2018-08-13T16:46:25.993Z,99.90
2018-08-13T16:48:55.542Z,99.90
2018-08-13T16:51:30.890Z,99.90
2018-08-13T16:54:00.425Z,99.90
2018-08-13T16:56:29.841Z,99.90
2018-08-13T16:58:59.190Z,99.90
2018-08-13T17:01:30.654Z,99.90
2018-08-13T17:04:00.248Z,99.90
2018-08-13T17:06:29.670Z,99.90
2018-08-13T17:08:59.058Z,99.90
2018-08-13T17:11:34.689Z,99.90
2018-08-13T17:14:06.954Z,99.90
2018-08-13T17:16:36.652Z,99.90
2018-08-13T17:19:06.091Z,99.90
2018-08-13T17:21:35.581Z,99.90
2018-08-13T17:24:05.402Z,99.90
2018-08-13T17:26:34.805Z,99.90
2018-08-13T17:29:04.438Z,99.90
2018-08-13T17:31:34.940Z,99.90
2018-08-13T17:34:04.477Z,99.90
2018-08-13T17:36:33.883Z,99.90
2018-08-13T17:41:40.777Z,99.90
2018-08-13T17:44:10.229Z,99.90
2018-08-13T17:46:47.491Z,99.90
2018-08-13T17:49:17.690Z,99.90
2018-08-13T17:51:48.114Z,99.90
2018-08-13T17:54:17.565Z,99.90
2018-08-13T17:56:47.005Z,99.90
2018-08-13T17:59:16.449Z,99.90
2018-08-13T18:01:49.660Z,99.90
2018-08-13T18:04:18.977Z,99.90
2018-08-13T18:06:48.345Z,99.90
2018-08-13T18:09:17.861Z,99.90
2018-08-13T18:11:51.827Z,99.90
2018-08-13T18:14:21.301Z,99.90
2018-08-13T18:16:50.675Z,99.90
2018-08-13T18:19:20.178Z,99.90
2018-08-13T18:21:53.758Z,99.90
2018-08-13T18:24:23.115Z,99.90
2018-08-13T18:26:52.590Z,99.90
2018-08-13T18:29:22.123Z,99.90
2018-08-13T18:31:59.036Z,99.90
2018-08-13T18:34:28.515Z,99.90
2018-08-13T18:36:58.110Z,99.90
2018-08-13T18:39:27.450Z,99.90
2018-08-13T18:42:00.501Z,99.90
2018-08-13T18:44:29.946Z,99.90
2018-08-13T18:46:59.401Z,99.90
2018-08-13T18:49:28.830Z,99.90
2018-08-13T18:51:58.253Z,99.90
2018-08-13T18:54:27.661Z,99.90
2018-08-13T18:56:57.057Z,99.90
2018-08-13T18:59:26.517Z,99.90
2018-08-13T19:01:56.865Z,99.90
2018-08-13T19:04:26.285Z,99.90
2018-08-13T19:06:55.712Z,99.90
2018-08-13T19:09:25.061Z,99.90
2018-08-13T19:12:03.497Z,99.90
2018-08-13T19:14:32.969Z,99.90
2018-08-13T19:17:02.375Z,99.90
2018-08-13T19:19:31.761Z,99.90
2018-08-13T19:22:08.420Z,99.90
2018-08-13T19:24:37.853Z,99.90
2018-08-13T19:27:07.236Z,99.90
2018-08-13T19:29:36.594Z,99.90
2018-08-13T19:32:50.627Z,99.90
2018-08-13T19:35:20.010Z,99.90
2018-08-13T19:37:49.615Z,99.90
2018-08-13T19:40:29.717Z,99.90
2018-08-13T19:42:59.085Z,99.90
2018-08-13T19:45:28.596Z,99.90
2018-08-13T19:47:57.950Z,99.90
2018-08-13T19:50:42.221Z,99.90
2018-08-13T19:53:11.706Z,99.90
2018-08-13T19:55:41.179Z,99.90
2018-08-13T19:58:10.533Z,99.90
2018-08-13T20:00:53.948Z,99.90
2018-08-13T20:03:23.397Z,99.90
2018-08-13T20:05:52.833Z,99.90
2018-08-13T20:08:22.320Z,99.90
2018-08-13T20:11:03.062Z,99.90
2018-08-13T20:13:32.485Z,99.90
2018-08-13T20:16:01.919Z,99.90
2018-08-13T20:18:31.360Z,99.90
2018-08-13T20:21:00.768Z,99.90
2018-08-13T20:23:30.194Z,99.90
2018-08-13T20:25:59.562Z,99.90
2018-08-13T20:28:36.600Z,99.90
2018-08-13T20:31:06.712Z,99.90
2018-08-13T20:33:35.816Z,99.90
2018-08-13T20:36:05.045Z,99.90
2018-08-13T20:38:34.149Z,99.90
2018-08-13T20:41:06.908Z,99.90
2018-08-13T20:43:36.018Z,99.90
2018-08-13T20:46:05.501Z,99.90
2018-08-13T20:48:34.877Z,99.90
2018-08-13T20:51:11.576Z,99.90
2018-08-13T20:53:40.648Z,99.90
2018-08-13T20:56:09.764Z,99.90
2018-08-13T20:58:38.961Z,99.90
2018-08-13T21:01:17.488Z,99.90
2018-08-13T21:03:46.954Z,99.90
2018-08-13T21:06:16.301Z,99.90
2018-08-13T21:08:45.778Z,99.90
2018-08-13T21:11:19.797Z,99.90
2018-08-13T21:13:49.477Z,99.90
2018-08-13T21:16:19.146Z,99.90
2018-08-13T21:18:48.646Z,99.90
2018-08-13T21:21:32.485Z,99.90
2018-08-13T21:24:01.942Z,99.90
2018-08-13T21:26:31.324Z,99.90
2018-08-13T21:29:00.701Z,99.90
2018-08-13T21:31:44.237Z,99.90
2018-08-13T21:34:13.629Z,99.90
2018-08-13T21:36:43.018Z,99.90
2018-08-13T21:39:12.833Z,99.90
2018-08-13T21:41:42.477Z,99.90
2018-08-13T21:44:11.846Z,99.90
2018-08-13T21:46:41.213Z,99.90
2018-08-13T21:49:10.629Z,99.90
2018-08-13T21:51:47.414Z,99.90
2018-08-13T21:54:16.803Z,99.90
2018-08-13T21:56:46.097Z,99.90
2018-08-13T21:59:15.566Z,99.90
2018-08-13T22:02:01.903Z,99.90
2018-08-13T22:04:31.060Z,99.90
2018-08-13T22:07:00.120Z,99.90
2018-08-13T22:09:29.204Z,99.90
2018-08-13T22:12:00.357Z,99.90
2018-08-13T22:14:29.440Z,99.90
2018-08-13T22:16:58.537Z,99.90
2018-08-13T22:19:27.665Z,99.90
2018-08-13T22:21:58.961Z,99.90
2018-08-13T22:24:45.437Z,99.90
2018-08-13T22:27:15.131Z,99.90
2018-08-13T22:29:44.524Z,99.90
2018-08-13T22:32:32.430Z,99.90
2018-08-13T22:35:01.770Z,99.90
2018-08-13T22:37:31.197Z,99.90
2018-08-13T22:40:00.497Z,99.90
2018-08-13T22:42:31.923Z,99.90
2018-08-13T22:45:02.043Z,99.90
2018-08-13T22:47:31.541Z,99.90
2018-08-13T22:50:00.717Z,99.90
2018-08-13T22:52:29.878Z,99.90
2018-08-13T22:54:58.997Z,99.90
2018-08-13T22:57:28.097Z,99.90
2018-08-13T22:59:57.197Z,99.90
2018-08-13T23:02:30.273Z,99.90
2018-08-13T23:04:59.439Z,99.90
2018-08-13T23:07:28.537Z,99.90
2018-08-13T23:09:57.654Z,99.90
2018-08-13T23:12:28.820Z,99.90
2018-08-13T23:14:57.936Z,99.90
2018-08-13T23:17:27.087Z,99.90
2018-08-13T23:19:56.234Z,99.90
2018-08-13T23:23:03.401Z,99.90
2018-08-13T23:25:34.442Z,99.90
2018-08-13T23:28:05.318Z,99.90
2018-08-13T23:30:49.809Z,99.90
2018-08-13T23:33:19.254Z,99.90
2018-08-13T23:35:48.779Z,99.90
2018-08-13T23:38:18.113Z,99.90
2018-08-13T23:41:07.032Z,99.90
2018-08-13T23:43:36.495Z,99.90
2018-08-13T23:46:06.093Z,99.90
2018-08-13T23:48:35.481Z,99.90
2018-08-13T23:51:09.217Z,99.90
2018-08-13T23:53:38.617Z,99.90
2018-08-13T23:56:08.076Z,99.90
2018-08-13T23:58:37.463Z,99.90
